createdAt,value
2022-11-06T00:02:13.662Z,98.75
2022-11-06T00:07:25.731Z,98.30
2022-11-06T00:12:32.887Z,98.33
2022-11-06T00:17:40.828Z,98.26
2022-11-06T00:22:48.599Z,98.20
2022-11-06T00:27:56.510Z,98.18
2022-11-06T00:33:04.143Z,98.05
2022-11-06T00:38:11.404Z,98.25
2022-11-06T00:43:18.824Z,98.38
2022-11-06T00:48:26.058Z,98.20
2022-11-06T00:53:33.440Z,98.39
2022-11-06T00:58:41.664Z,98.66
2022-11-06T01:03:54.682Z,98.71
2022-11-06T01:09:02.576Z,98.59
2022-11-06T01:14:12.421Z,98.78
2022-11-06T01:19:21.196Z,98.89
2022-11-06T01:24:31.885Z,98.88
2022-11-06T01:29:39.687Z,98.59
2022-11-06T01:34:47.101Z,98.37
2022-11-06T01:39:54.400Z,98.25
2022-11-06T01:45:28.522Z,98.27
2022-11-06T01:50:36.180Z,98.43
2022-11-06T01:55:48.001Z,98.18
2022-11-06T02:00:55.593Z,98.20
2022-11-06T02:06:03.580Z,98.38
2022-11-06T02:11:11.367Z,98.26
2022-11-06T02:16:23.470Z,98.17
2022-11-06T02:21:59.684Z,98.19
2022-11-06T02:27:12.234Z,98.05
2022-11-06T02:32:25.659Z,98.14
2022-11-06T02:47:27.796Z,98.49
2022-11-06T02:52:38.476Z,98.15
2022-11-06T02:57:50.281Z,98.05
2022-11-06T03:03:01.846Z,98.19
2022-11-06T03:08:15.791Z,98.44
2022-11-06T03:13:28.776Z,98.18
2022-11-06T03:18:44.480Z,98.22
2022-11-06T03:23:56.265Z,98.35
2022-11-06T03:29:10.769Z,98.99
2022-11-06T03:34:26.556Z,98.94
2022-11-06T03:39:37.755Z,98.64
2022-11-06T03:44:49.971Z,98.40
2022-11-06T03:50:02.603Z,98.38
2022-11-06T03:55:14.722Z,98.71
2022-11-06T04:00:23.384Z,99.29
2022-11-06T04:05:30.860Z,99.62
2022-11-06T04:10:58.305Z,99.32
2022-11-06T04:16:06.893Z,99.32
2022-11-06T04:21:26.104Z,99.13
2022-11-06T04:26:39.873Z,99.59
2022-11-06T04:31:56.889Z,99.44
2022-11-06T04:37:10.687Z,99.56
2022-11-06T04:42:29.957Z,99.86
2022-11-06T04:47:40.038Z,100.00
2022-11-06T04:52:48.872Z,100.00
2022-11-06T04:57:56.011Z,100.00
2022-11-06T05:03:03.410Z,100.00
2022-11-06T05:08:16.594Z,99.92
2022-11-06T05:13:23.922Z,99.65
2022-11-06T05:18:29.796Z,99.36
2022-11-06T05:23:38.685Z,98.79
2022-11-06T05:28:45.722Z,98.58
2022-11-06T05:33:51.292Z,98.37
2022-11-06T05:38:58.275Z,97.96
2022-11-06T05:44:05.678Z,97.17
2022-11-06T05:49:13.198Z,97.25
2022-11-06T05:54:20.029Z,96.80
2022-11-06T05:59:26.966Z,96.63
2022-11-06T06:04:34.060Z,96.77
2022-11-06T06:09:39.352Z,96.79
2022-11-06T06:14:50.274Z,96.94
2022-11-06T06:19:58.063Z,97.17
2022-11-06T06:25:10.407Z,97.32
2022-11-06T06:30:23.278Z,98.14
2022-11-06T06:35:30.384Z,98.17
2022-11-06T06:40:37.370Z,97.22
2022-11-06T06:45:44.703Z,96.69
2022-11-06T06:50:52.076Z,96.21
2022-11-06T06:56:01.967Z,96.21
2022-11-06T07:01:11.310Z,95.61
2022-11-06T07:06:21.183Z,96.09
2022-11-06T07:11:28.089Z,95.84
2022-11-06T07:16:35.155Z,95.45
2022-11-06T07:21:42.456Z,95.41
2022-11-06T07:26:50.088Z,95.10
2022-11-06T07:31:57.205Z,94.90
2022-11-06T07:37:07.339Z,93.82
2022-11-06T07:42:14.728Z,93.30
2022-11-06T07:47:20.198Z,92.42
2022-11-06T07:52:27.570Z,92.87
2022-11-06T07:57:38.872Z,92.16
2022-11-06T08:02:45.920Z,92.42
2022-11-06T08:07:57.089Z,92.05
2022-11-06T08:13:04.590Z,91.97
2022-11-06T08:18:13.437Z,91.18
2022-11-06T08:23:21.333Z,90.10
2022-11-06T08:28:30.292Z,89.89
2022-11-06T08:33:38.872Z,89.89
2022-11-06T08:38:48.435Z,90.00
2022-11-06T08:43:55.535Z,90.65
2022-11-06T08:49:02.561Z,90.79
2022-11-06T08:54:11.222Z,90.69
2022-11-06T08:59:19.319Z,90.66
2022-11-06T09:04:26.720Z,90.41
2022-11-06T09:09:33.727Z,89.72
2022-11-06T09:14:41.320Z,88.45
2022-11-06T09:19:48.514Z,88.32
2022-11-06T09:25:03.773Z,88.50
2022-11-06T09:30:14.609Z,88.84
2022-11-06T09:35:22.943Z,88.97
2022-11-06T09:40:35.239Z,87.88
2022-11-06T09:45:43.563Z,87.74
2022-11-06T09:50:57.833Z,87.80
2022-11-06T09:56:06.641Z,88.51
2022-11-06T10:01:24.615Z,88.09
2022-11-06T10:06:35.790Z,88.57
2022-11-06T10:11:59.378Z,88.32
2022-11-06T10:17:19.657Z,87.91
2022-11-06T10:22:33.368Z,87.26
2022-11-06T10:27:43.722Z,87.16
2022-11-06T10:33:13.264Z,86.22
2022-11-06T10:38:25.073Z,86.66
2022-11-06T10:43:36.502Z,86.25
2022-11-06T10:48:48.609Z,86.07
2022-11-06T10:54:06.485Z,86.42
2022-11-06T10:59:13.630Z,86.93
2022-11-06T11:04:20.781Z,87.30
2022-11-06T11:09:32.766Z,87.03
2022-11-06T11:14:39.823Z,85.80
2022-11-06T11:19:46.902Z,86.33
2022-11-06T11:25:03.256Z,85.67
2022-11-06T11:30:26.360Z,85.40
2022-11-06T11:35:35.775Z,85.02
2022-11-06T11:40:43.614Z,85.13
2022-11-06T11:46:05.377Z,85.76
2022-11-06T11:51:25.582Z,86.88
2022-11-06T11:56:58.282Z,86.16
2022-11-06T12:02:05.403Z,86.54
2022-11-06T12:07:32.608Z,86.89
2022-11-06T12:12:40.062Z,86.59
2022-11-06T12:17:50.624Z,86.56
2022-11-06T12:22:59.854Z,86.22
2022-11-06T12:28:14.517Z,86.38
2022-11-06T12:33:59.652Z,86.13
2022-11-06T12:38:57.250Z,84.90
2022-11-06T12:44:05.435Z,85.69
2022-11-06T12:49:35.332Z,86.15
2022-11-06T12:54:57.982Z,86.00
2022-11-06T13:00:11.175Z,86.00
2022-11-06T13:05:22.017Z,86.49
2022-11-06T13:10:37.996Z,86.43
2022-11-06T13:15:54.549Z,86.93
2022-11-06T13:21:08.546Z,86.58
2022-11-06T13:26:24.247Z,86.67
2022-11-06T13:31:37.714Z,86.76
2022-11-06T13:36:45.432Z,86.79
2022-11-06T13:41:53.714Z,86.58
2022-11-06T13:47:09.892Z,86.67
2022-11-06T13:52:22.989Z,86.86
2022-11-06T13:57:59.344Z,86.46
2022-11-06T14:03:42.992Z,86.37
2022-11-06T14:08:53.451Z,85.80
2022-11-06T14:14:03.819Z,86.04
2022-11-06T14:19:15.780Z,85.96
2022-11-06T14:24:43.525Z,85.85
2022-11-06T14:30:02.434Z,85.77
2022-11-06T14:35:51.799Z,85.03
2022-11-06T14:40:59.340Z,85.24
2022-11-06T14:46:09.138Z,85.38
2022-11-06T14:51:17.310Z,84.88
2022-11-06T14:56:27.639Z,83.62
2022-11-06T15:01:37.289Z,83.00
2022-11-06T15:06:48.403Z,83.42
2022-11-06T15:11:58.666Z,84.10
2022-11-06T15:17:12.721Z,84.09
2022-11-06T15:22:26.331Z,82.85
2022-11-06T15:27:43.040Z,82.90
2022-11-06T15:32:53.996Z,82.81
2022-11-06T15:38:08.499Z,82.64
2022-11-06T15:43:26.195Z,83.15
2022-11-06T15:48:33.738Z,82.47
2022-11-06T15:53:42.896Z,82.50
2022-11-06T15:59:08.917Z,82.51
2022-11-06T16:04:20.672Z,82.42
2022-11-06T16:09:28.973Z,82.60
2022-11-06T16:14:41.869Z,82.38
2022-11-06T16:19:51.881Z,82.40
2022-11-06T16:25:03.104Z,82.36
2022-11-06T16:30:25.468Z,82.46
2022-11-06T16:35:35.727Z,82.79
2022-11-06T16:40:55.942Z,82.90
2022-11-06T16:46:08.042Z,83.34
2022-11-06T16:51:30.200Z,83.45
2022-11-06T16:56:37.822Z,83.71
2022-11-06T17:01:48.410Z,83.61
2022-11-06T17:06:57.523Z,83.63
2022-11-06T17:12:11.421Z,83.71
2022-11-06T17:17:28.493Z,83.98
2022-11-06T17:22:35.526Z,84.47
2022-11-06T17:27:40.925Z,84.47
2022-11-06T17:32:48.191Z,84.67
2022-11-06T17:37:55.701Z,84.83
2022-11-06T17:43:02.750Z,85.00
2022-11-06T17:48:10.617Z,85.16
2022-11-06T17:53:17.903Z,85.40
2022-11-06T17:58:25.321Z,85.58
2022-11-06T18:03:36.710Z,85.67
2022-11-06T18:08:44.721Z,85.88
2022-11-06T18:13:51.934Z,86.06
2022-11-06T18:18:59.569Z,86.24
2022-11-06T18:24:08.436Z,86.30
2022-11-06T18:29:16.542Z,86.59
2022-11-06T18:34:24.123Z,86.98
2022-11-06T18:39:31.305Z,87.26
2022-11-06T18:44:41.582Z,87.31
2022-11-06T18:49:48.579Z,87.60
2022-11-06T18:55:00.691Z,87.67
2022-11-06T19:00:13.470Z,87.80
2022-11-06T19:05:22.473Z,87.98
2022-11-06T19:10:31.324Z,88.26
2022-11-06T19:15:40.040Z,88.34
2022-11-06T19:20:47.352Z,88.53
2022-11-06T19:26:04.532Z,88.45
2022-11-06T19:31:29.431Z,88.81
2022-11-06T19:36:37.212Z,88.72
2022-11-06T19:41:44.846Z,88.78
2022-11-06T19:46:53.186Z,89.10
2022-11-06T19:52:41.397Z,89.32
2022-11-06T19:57:30.517Z,89.49
2022-11-06T20:02:38.064Z,89.62
2022-11-06T20:07:45.599Z,89.76
2022-11-06T20:12:53.179Z,89.88
2022-11-06T20:18:00.578Z,89.78
2022-11-06T20:23:07.953Z,89.85
2022-11-06T20:28:15.210Z,89.91
2022-11-06T20:33:23.032Z,90.38
2022-11-06T20:38:30.437Z,90.39
2022-11-06T20:43:37.736Z,90.33
2022-11-06T20:48:46.096Z,90.59
2022-11-06T20:53:54.034Z,90.52
2022-11-06T20:59:01.194Z,90.74
2022-11-06T21:04:08.573Z,90.98
2022-11-06T21:09:17.313Z,91.06
2022-11-06T21:14:25.192Z,91.29
2022-11-06T21:19:33.350Z,91.18
2022-11-06T21:24:41.475Z,91.43
2022-11-06T21:29:48.474Z,91.56
2022-11-06T21:34:54.228Z,91.87
2022-11-06T21:40:01.840Z,91.85
2022-11-06T21:45:14.791Z,91.81
2022-11-06T21:50:29.558Z,91.91
2022-11-06T21:55:57.353Z,91.95
2022-11-06T22:01:07.220Z,91.90
2022-11-06T22:06:16.875Z,92.06
2022-11-06T22:11:26.004Z,92.08
2022-11-06T22:16:36.248Z,92.08
2022-11-06T22:27:24.593Z,92.26
2022-11-06T22:32:32.665Z,92.15
2022-11-06T22:37:40.295Z,92.25
2022-11-06T22:42:50.101Z,92.28
2022-11-06T22:47:58.822Z,92.38
2022-11-06T22:53:04.304Z,92.64
2022-11-06T22:58:11.604Z,92.68
2022-11-06T23:03:19.257Z,92.66
2022-11-06T23:08:27.796Z,92.98
2022-11-06T23:13:35.101Z,93.37
2022-11-06T23:18:42.960Z,93.37
2022-11-06T23:23:49.979Z,93.69
2022-11-06T23:28:59.147Z,93.67
2022-11-06T23:34:06.610Z,93.87
2022-11-06T23:39:15.316Z,94.50
2022-11-06T23:44:39.998Z,94.39
2022-11-06T23:49:48.427Z,94.51
2022-11-06T23:54:55.734Z,94.45
